weather.gov     
National Weather Service

Terminal Aerodrome Forecast
NWS Homepage
This page is being discontinued on March 12, 2014.
The same data is available at this site. Please update your bookmarks.
Thank you, and we apologize for the inconvenience.
Please send an email to SR-SRH.Webmaster@noaa.gov with any concerns.


Current Version
Previous Version:    01  02  03  04  05  06  07  08  09  10  11  12  13  14  15  16  17  18  19  20  21  22  23  24  25  26  27  28  29  30  
   31  32  33  34  35  36  37  38  39  40  41  42  43  44  45  46  47  48  49  
[Printable]
348
FTUS41 KRLX 240900 AAA
TAFEKN
TAF AMD
KEKN 240910Z 2409/2506 00000KT 4SM -SHRA BR OVC010
      TEMPO 2410/2412 2SM TSRA BR BKN007CB
     FM241200 35004KT 5SM -SHRA BR OVC010
      TEMPO 2412/2415 2SM SHRA BR
     FM241500 32004KT 6SM -SHRA BR OVC015
     FM241900 32007KT P6SM BKN025
     FM242300 32005KT P6SM BKN035
     FM250400 00000KT 5SM BR SCT035=


U.S. Dept. of Commerce
NOAA National Weather Service
1325 East West Highway
Silver Spring, MD 20910
E-mail: w-nws.webmaster@noaa.gov
Page last modified: May 16, 2007
NATIONAL WEATHER SERVICE: for Safety, for Work, for Fun - FOR LIFE